Time;durP1;ratioP1;P1;durP2;ratioP2;P2;SDS_P1;SDS_P2;PMS_P1;PMS_P2;Temp;Humidity;BMP_temperature;BMP_pressure;BME280_temperature;BME280_humidity;BME280_pressure;Samples;Min_cycle;Max_cycle;Signal;HPM_P1;HPM_P2
2022/02/13 00:01:29;;;;;;;19.88;11.35;;;2.70;78.50;;;;;;4965031;28;20466;-81
2022/02/13 00:03:54;;;;;;;19.30;13.25;;;2.70;78.60;;;;;;4964272;28;20445;-79
2022/02/13 00:06:20;;;;;;;17.83;11.98;;;2.70;78.60;;;;;;4968582;28;20055;-79
2022/02/13 00:08:46;;;;;;;16.67;11.32;;;2.80;78.50;;;;;;4968136;28;20027;-76
2022/02/13 00:11:11;;;;;;;18.77;11.05;;;2.80;78.30;;;;;;4971003;28;20073;-80
2022/02/13 00:13:37;;;;;;;19.80;12.27;;;2.70;78.30;;;;;;4970452;28;20489;-80
2022/02/13 00:16:03;;;;;;;18.05;12.32;;;2.70;78.40;;;;;;4971087;28;20117;-80
2022/02/13 00:18:29;;;;;;;17.73;11.65;;;2.60;78.60;;;;;;4967361;28;20050;-80
2022/02/13 00:20:54;;;;;;;18.35;11.30;;;2.60;78.70;;;;;;4970662;28;20077;-80
2022/02/13 00:23:20;;;;;;;20.30;12.13;;;2.60;78.70;;;;;;4970452;28;20360;-79
2022/02/13 00:25:46;;;;;;;16.33;11.13;;;2.60;78.80;;;;;;4979036;28;20541;-80
2022/02/13 00:28:13;;;;;;;18.10;10.98;;;2.60;78.70;;;;;;4973769;28;20026;-80
2022/02/13 00:30:39;;;;;;;17.73;10.60;;;2.60;78.70;;;;;;4974237;28;20039;-80
2022/02/13 00:33:04;;;;;;;19.15;11.77;;;2.60;78.70;;;;;;4955779;28;20359;-80
2022/02/13 00:35:31;;;;;;;17.42;10.75;;;2.60;78.70;;;;;;4974453;28;20069;-79
2022/02/13 00:37:56;;;;;;;18.88;11.35;;;2.60;78.70;;;;;;4977141;28;20074;-79
2022/02/13 00:40:22;;;;;;;16.80;11.82;;;2.60;78.70;;;;;;4972920;28;20165;-80
2022/02/13 00:42:48;;;;;;;15.70;10.18;;;2.60;78.90;;;;;;4974323;28;20459;-81
2022/02/13 00:45:14;;;;;;;16.42;11.38;;;2.60;78.80;;;;;;4970635;28;20163;-80
2022/02/13 00:47:39;;;;;;;15.93;10.77;;;2.50;79.00;;;;;;4972731;28;20038;-79
2022/02/13 00:50:06;;;;;;;16.70;10.90;;;2.60;78.90;;;;;;4955111;28;20050;-80
2022/02/13 00:52:32;;;;;;;17.17;10.90;;;2.60;78.70;;;;;;4974354;28;20054;-80
2022/02/13 00:54:58;;;;;;;15.98;10.13;;;2.50;78.80;;;;;;4972452;28;20458;-80
2022/02/13 00:57:24;;;;;;;19.92;12.07;;;2.50;78.90;;;;;;4974554;28;20058;-80
2022/02/13 00:59:49;;;;;;;18.50;11.60;;;2.50;79.10;;;;;;4973011;28;20038;-80
2022/02/13 01:02:15;;;;;;;16.50;11.80;;;2.40;78.80;;;;;;4972755;28;20117;-79
2022/02/13 01:04:41;;;;;;;16.48;10.30;;;2.40;78.90;;;;;;4976653;28;20045;-80
2022/02/13 01:07:06;;;;;;;18.85;11.52;;;2.40;79.00;;;;;;4972237;28;20038;-81
2022/02/13 01:09:32;;;;;;;15.27;11.15;;;2.40;79.00;;;;;;4970550;28;20076;-81
2022/02/13 01:11:58;;;;;;;14.98;10.90;;;2.40;79.10;;;;;;4978822;28;20036;-81
2022/02/13 01:14:23;;;;;;;17.15;11.13;;;2.30;79.20;;;;;;4971449;28;20544;-80
2022/02/13 01:16:49;;;;;;;18.33;12.18;;;2.40;79.20;;;;;;4977958;28;20442;-80
2022/02/13 01:19:15;;;;;;;16.08;10.93;;;2.40;79.00;;;;;;4980133;28;20497;-80
2022/02/13 01:21:41;;;;;;;16.80;10.98;;;2.40;78.80;;;;;;4974668;28;20038;-81
2022/02/13 01:24:06;;;;;;;16.88;11.52;;;2.40;78.70;;;;;;4955657;28;20518;-81
2022/02/13 01:26:32;;;;;;;16.60;11.18;;;2.40;78.80;;;;;;4970062;28;20727;-81
2022/02/13 01:28:58;;;;;;;16.13;11.10;;;2.40;78.70;;;;;;4972726;28;20034;-81
2022/02/13 01:31:23;;;;;;;14.70;10.43;;;2.40;78.50;;;;;;4971424;28;20092;-80
2022/02/13 01:33:49;;;;;;;15.82;11.02;;;2.30;78.90;;;;;;4975054;28;20101;-81
2022/02/13 01:36:15;;;;;;;16.10;10.55;;;2.30;78.90;;;;;;4972436;28;20027;-81
2022/02/13 01:38:41;;;;;;;16.45;10.70;;;2.30;79.00;;;;;;4983476;28;20033;-80
2022/02/13 01:41:06;;;;;;;16.23;10.90;;;2.30;79.00;;;;;;4972461;28;20038;-81
2022/02/13 01:43:32;;;;;;;20.55;11.63;;;2.30;78.90;;;;;;4984602;28;20078;-81
2022/02/13 01:45:58;;;;;;;16.27;10.93;;;2.30;79.10;;;;;;4980344;28;20490;-80
2022/02/13 01:48:24;;;;;;;20.25;11.70;;;2.30;79.20;;;;;;4964950;28;20577;-81
2022/02/13 01:50:51;;;;;;;17.02;11.30;;;2.30;79.20;;;;;;4970988;28;20557;-80
2022/02/13 01:53:16;;;;;;;16.38;10.55;;;2.30;79.10;;;;;;4971133;28;20077;-80
2022/02/13 01:55:48;;;;;;;22.08;10.77;;;2.30;79.00;;;;;;4973415;28;20137;-81
2022/02/13 01:58:16;;;;;;;17.52;10.82;;;2.20;79.20;;;;;;4970843;28;20095;-81
2022/02/13 02:00:42;;;;;;;16.40;10.73;;;2.20;79.30;;;;;;4978729;28;20046;-80
2022/02/13 02:03:07;;;;;;;16.80;10.73;;;2.20;79.40;;;;;;4969993;28;20045;-80
2022/02/13 02:05:33;;;;;;;17.30;12.10;;;2.20;79.30;;;;;;4973307;28;20038;-81
2022/02/13 02:07:59;;;;;;;17.42;11.48;;;2.20;79.20;;;;;;4969583;28;21864;-81
2022/02/13 02:10:25;;;;;;;18.95;12.13;;;2.20;79.20;;;;;;4948875;28;20026;-81
2022/02/13 02:12:50;;;;;;;16.30;10.52;;;2.20;79.30;;;;;;4971511;28;20046;-79
2022/02/13 02:15:16;;;;;;;16.30;11.00;;;2.30;79.20;;;;;;4941176;28;20438;-80
2022/02/13 02:17:42;;;;;;;17.88;10.75;;;2.20;79.00;;;;;;4929782;28;20044;-79
2022/02/13 02:20:09;;;;;;;18.17;11.38;;;2.30;79.20;;;;;;4928354;28;20404;-80
2022/02/13 02:22:34;;;;;;;17.98;11.90;;;2.30;79.00;;;;;;4930780;28;20031;-80
2022/02/13 02:25:00;;;;;;;17.33;10.98;;;2.30;78.90;;;;;;4928817;28;20063;-80
2022/02/13 02:27:26;;;;;;;16.38;11.82;;;2.30;79.00;;;;;;4926671;28;20044;-80
2022/02/13 02:29:51;;;;;;;17.80;11.70;;;2.30;78.90;;;;;;4936929;28;20086;-80
2022/02/13 02:32:17;;;;;;;18.02;10.88;;;2.30;78.90;;;;;;4909292;28;20073;-81
2022/02/13 02:34:43;;;;;;;18.35;11.02;;;2.20;79.00;;;;;;4908678;28;20050;-80
2022/02/13 02:37:10;;;;;;;17.65;10.57;;;2.30;78.90;;;;;;4908516;29;20035;-80
2022/02/13 02:39:36;;;;;;;20.83;10.82;;;2.30;78.90;;;;;;4911155;29;20552;-80
2022/02/13 02:42:03;;;;;;;17.17;11.65;;;2.30;78.80;;;;;;4928749;28;20048;-80
2022/02/13 02:44:29;;;;;;;17.67;11.85;;;2.20;78.80;;;;;;4929665;28;20032;-80
2022/02/13 02:46:54;;;;;;;19.70;11.73;;;2.40;78.70;;;;;;4928193;28;20047;-80
2022/02/13 02:49:20;;;;;;;17.45;11.52;;;2.40;78.50;;;;;;4929229;28;20039;-80
2022/02/13 02:51:46;;;;;;;15.88;11.55;;;2.40;78.50;;;;;;4933187;28;20046;-80
2022/02/13 02:54:11;;;;;;;16.95;11.05;;;2.30;78.60;;;;;;4929652;28;20046;-80
2022/02/13 02:56:37;;;;;;;19.65;11.63;;;2.30;78.60;;;;;;4931329;28;20408;-81
2022/02/13 02:59:03;;;;;;;18.08;11.68;;;2.30;78.50;;;;;;4924897;28;20812;-80
2022/02/13 03:01:29;;;;;;;17.63;11.52;;;2.40;78.20;;;;;;4926949;28;20143;-80
2022/02/13 03:03:55;;;;;;;17.42;11.35;;;2.40;78.30;;;;;;4929477;28;20053;-81
2022/02/13 03:06:20;;;;;;;19.80;12.77;;;2.40;78.20;;;;;;4930010;28;20042;-80
2022/02/13 03:08:46;;;;;;;18.88;13.10;;;2.40;78.00;;;;;;4922548;28;20048;-80
2022/02/13 03:11:11;;;;;;;19.25;12.27;;;2.40;78.10;;;;;;4927266;28;20065;-80
2022/02/13 03:13:37;;;;;;;16.50;11.85;;;2.40;78.20;;;;;;4926235;28;20093;-80
2022/02/13 03:16:03;;;;;;;19.45;11.73;;;2.20;78.50;;;;;;4961526;28;20080;-80
2022/02/13 03:18:30;;;;;;;16.38;10.85;;;2.20;78.70;;;;;;4965588;28;20039;-80
2022/02/13 03:20:58;;;;;;;16.50;11.82;;;2.20;79.00;;;;;;4966738;28;20186;-80
2022/02/13 03:23:24;;;;;;;17.30;11.65;;;2.10;79.20;;;;;;4968730;28;20038;-80
2022/02/13 03:25:49;;;;;;;17.10;12.00;;;2.10;79.00;;;;;;4964869;28;20035;-80
2022/02/13 03:28:15;;;;;;;19.58;11.63;;;2.10;79.20;;;;;;4961777;28;20030;-80
2022/02/13 03:30:42;;;;;;;17.40;11.32;;;2.10;79.20;;;;;;4963729;28;20517;-80
2022/02/13 03:33:08;;;;;;;20.00;11.27;;;2.10;79.30;;;;;;4965872;28;20049;-81
2022/02/13 03:35:34;;;;;;;18.10;10.93;;;2.20;79.20;;;;;;4966101;28;20035;-80
2022/02/13 03:38:01;;;;;;;19.48;12.18;;;2.20;79.20;;;;;;4966274;28;20163;-80
2022/02/13 03:40:27;;;;;;;17.75;12.15;;;2.20;79.00;;;;;;4947582;28;20533;-80
2022/02/13 03:42:53;;;;;;;17.77;11.90;;;2.20;79.10;;;;;;4963248;28;20042;-80
2022/02/13 03:45:18;;;;;;;19.00;12.88;;;2.20;79.10;;;;;;4967619;28;20042;-81
2022/02/13 03:47:44;;;;;;;23.13;11.85;;;2.20;79.00;;;;;;4965815;28;20049;-80
2022/02/13 03:50:10;;;;;;;20.15;11.98;;;2.20;78.90;;;;;;4968034;28;20463;-79
2022/02/13 03:52:37;;;;;;;17.55;12.00;;;2.20;79.00;;;;;;4966367;28;20043;-79
2022/02/13 03:55:04;;;;;;;17.13;11.00;;;2.10;79.10;;;;;;4951076;28;20450;-79
2022/02/13 03:57:30;;;;;;;18.65;11.90;;;2.10;79.40;;;;;;4970810;28;20529;-80
2022/02/13 03:59:56;;;;;;;17.73;12.40;;;2.10;79.50;;;;;;4952757;28;20043;-80
2022/02/13 04:02:22;;;;;;;18.50;12.25;;;2.10;79.60;;;;;;4977411;28;20046;-80
2022/02/13 04:04:48;;;;;;;18.23;11.65;;;2.10;79.80;;;;;;4970800;28;20043;-80
2022/02/13 04:07:14;;;;;;;17.05;11.25;;;2.10;79.70;;;;;;4966540;28;20068;-80
2022/02/13 04:09:40;;;;;;;18.52;12.18;;;2.10;79.70;;;;;;4949480;28;20597;-80
2022/02/13 04:12:06;;;;;;;15.30;11.38;;;2.20;79.70;;;;;;4965098;28;20038;-80
2022/02/13 04:14:31;;;;;;;18.00;11.32;;;2.20;79.80;;;;;;4965815;28;20246;-80
2022/02/13 04:16:57;;;;;;;16.63;11.73;;;2.20;79.70;;;;;;4967356;28;20042;-80
2022/02/13 04:19:23;;;;;;;17.73;12.15;;;2.30;79.40;;;;;;4962827;28;20569;-80
2022/02/13 04:21:49;;;;;;;18.55;11.15;;;2.30;79.40;;;;;;4966875;28;20055;-81
2022/02/13 04:24:15;;;;;;;18.23;11.95;;;2.40;79.20;;;;;;4957779;28;20129;-81
2022/02/13 04:26:40;;;;;;;19.58;12.15;;;2.40;79.10;;;;;;4963178;28;20065;-80
2022/02/13 04:29:07;;;;;;;17.55;12.00;;;2.50;79.00;;;;;;4962518;28;20048;-81
2022/02/13 04:31:33;;;;;;;16.08;11.70;;;2.50;78.90;;;;;;4964928;28;20061;-81
2022/02/13 04:33:59;;;;;;;17.77;10.48;;;2.60;78.80;;;;;;4966896;28;20042;-81
2022/02/13 04:36:24;;;;;;;18.27;12.38;;;2.60;78.70;;;;;;4964129;28;20122;-81
2022/02/13 04:38:50;;;;;;;18.58;10.98;;;2.60;78.70;;;;;;4947211;28;20489;-80
2022/02/13 04:41:16;;;;;;;15.48;10.98;;;2.60;78.60;;;;;;4964620;28;20498;-81
2022/02/13 04:43:42;;;;;;;15.18;10.93;;;2.60;78.50;;;;;;4964600;28;20581;-81
2022/02/13 04:46:07;;;;;;;18.58;11.07;;;2.70;78.40;;;;;;4963541;28;20039;-80
2022/02/13 04:48:33;;;;;;;15.50;10.23;;;2.70;78.20;;;;;;4965111;28;20042;-81
2022/02/13 04:50:59;;;;;;;17.45;11.02;;;2.70;78.10;;;;;;4966619;28;20035;-81
2022/02/13 04:53:25;;;;;;;16.83;11.32;;;2.70;78.10;;;;;;4964418;28;20113;-81
2022/02/13 04:55:51;;;;;;;15.60;11.27;;;2.70;78.20;;;;;;4963923;28;20047;-81
2022/02/13 04:58:19;;;;;;;17.20;11.35;;;2.70;78.00;;;;;;4962645;28;20482;-81
2022/02/13 05:00:45;;;;;;;18.48;11.25;;;2.80;77.80;;;;;;4954226;28;20063;-80
2022/02/13 05:03:12;;;;;;;16.92;11.18;;;2.80;77.80;;;;;;4966036;28;20525;-81
2022/02/13 05:05:37;;;;;;;15.55;11.18;;;2.80;77.70;;;;;;4947161;28;20058;-81
2022/02/13 05:08:03;;;;;;;17.48;11.10;;;2.90;77.70;;;;;;4964219;28;20454;-81
2022/02/13 05:10:29;;;;;;;16.17;10.55;;;2.90;77.70;;;;;;4967680;28;20042;-81
2022/02/13 05:12:55;;;;;;;14.85;10.65;;;2.90;77.70;;;;;;4975413;28;20125;-81
2022/02/13 05:15:21;;;;;;;16.85;11.27;;;2.90;77.70;;;;;;4968432;28;20070;-80
2022/02/13 05:17:47;;;;;;;17.38;11.30;;;2.90;77.70;;;;;;4967578;28;20554;-80
2022/02/13 05:20:13;;;;;;;15.27;10.35;;;2.90;77.50;;;;;;4967406;28;20129;-80
2022/02/13 05:22:40;;;;;;;15.27;10.20;;;2.90;77.60;;;;;;4968899;28;20057;-80
2022/02/13 05:25:06;;;;;;;17.65;11.38;;;2.90;77.70;;;;;;4969015;28;20127;-81
2022/02/13 05:27:31;;;;;;;16.92;10.77;;;2.90;77.60;;;;;;4967779;28;20122;-81
2022/02/13 05:29:57;;;;;;;15.93;10.88;;;3.00;77.70;;;;;;4968220;28;20026;-81
2022/02/13 05:32:23;;;;;;;16.90;11.35;;;2.90;77.60;;;;;;4967570;28;20421;-81
2022/02/13 05:34:49;;;;;;;15.07;9.85;;;3.00;77.50;;;;;;4970346;28;20041;-81
2022/02/13 05:37:14;;;;;;;16.83;10.43;;;2.90;77.60;;;;;;4968002;28;20069;-80
2022/02/13 05:39:40;;;;;;;15.70;10.27;;;2.90;77.60;;;;;;4950593;28;20049;-80
2022/02/13 05:42:06;;;;;;;16.40;10.75;;;2.90;77.60;;;;;;4969215;28;20050;-80
2022/02/13 05:44:31;;;;;;;17.30;10.52;;;2.80;77.80;;;;;;4952808;28;20043;-80
2022/02/13 05:46:57;;;;;;;16.17;10.68;;;2.80;77.80;;;;;;4966255;28;20544;-80
2022/02/13 05:49:23;;;;;;;14.27;9.95;;;2.70;77.70;;;;;;4980269;28;20655;-80
2022/02/13 05:51:49;;;;;;;16.48;10.43;;;2.70;77.70;;;;;;4973401;28;20030;-80
2022/02/13 05:54:14;;;;;;;17.38;10.95;;;2.60;77.90;;;;;;4970342;28;20072;-80
2022/02/13 05:56:41;;;;;;;17.98;11.13;;;2.70;77.90;;;;;;4974136;28;20038;-80
2022/02/13 05:59:07;;;;;;;16.88;10.93;;;2.60;78.20;;;;;;4949848;28;20050;-80
2022/02/13 06:01:33;;;;;;;15.80;11.13;;;2.60;78.30;;;;;;4970521;28;20035;-79
2022/02/13 06:03:59;;;;;;;17.08;11.55;;;2.60;78.20;;;;;;4971667;28;20058;-80
2022/02/13 06:06:24;;;;;;;18.75;11.20;;;2.60;78.50;;;;;;4967585;28;20045;-80
2022/02/13 06:08:50;;;;;;;20.65;11.02;;;2.50;78.70;;;;;;4970430;28;20051;-79
2022/02/13 06:11:16;;;;;;;16.20;11.35;;;2.40;78.80;;;;;;4967399;28;20134;-79
2022/02/13 06:13:42;;;;;;;16.80;10.48;;;2.40;79.00;;;;;;4972356;28;20506;-80
2022/02/13 06:16:08;;;;;;;18.15;11.20;;;2.40;79.20;;;;;;4969690;28;20080;-79
2022/02/13 06:18:34;;;;;;;15.93;10.50;;;2.30;79.30;;;;;;4973841;28;20034;-81
2022/02/13 06:21:04;;;;;;;16.02;10.80;;;2.40;79.20;;;;;;4968855;28;20043;-79
2022/02/13 06:23:30;;;;;;;20.13;10.98;;;2.30;79.40;;;;;;4968556;28;20043;-80
2022/02/13 06:25:56;;;;;;;18.33;11.55;;;2.30;79.40;;;;;;4969638;28;20454;-79
2022/02/13 06:28:22;;;;;;;17.88;10.65;;;2.30;79.50;;;;;;4951642;28;20504;-80
2022/02/13 06:30:48;;;;;;;17.08;11.65;;;2.20;79.70;;;;;;4966155;28;20466;-81
2022/02/13 06:33:14;;;;;;;16.60;11.57;;;2.30;79.60;;;;;;4950295;28;20378;-81
2022/02/13 06:35:41;;;;;;;19.95;12.95;;;2.20;79.80;;;;;;4957469;28;20660;-81
2022/02/13 06:38:11;;;;;;;18.30;10.98;;;2.20;79.80;;;;;;4957612;28;20133;-80
2022/02/13 06:40:37;;;;;;;21.50;11.80;;;2.20;79.80;;;;;;4967208;28;20031;-81
2022/02/13 06:43:03;;;;;;;19.67;11.93;;;2.20;80.00;;;;;;4968060;28;20438;-81
2022/02/13 06:45:29;;;;;;;19.67;12.02;;;2.20;80.00;;;;;;4962094;28;20123;-81
2022/02/13 06:47:55;;;;;;;19.10;11.77;;;2.20;79.90;;;;;;4965502;28;20038;-81
2022/02/13 06:50:20;;;;;;;17.50;12.05;;;2.20;79.90;;;;;;4963891;28;20035;-80
2022/02/13 06:52:46;;;;;;;19.92;11.82;;;2.30;79.90;;;;;;4964174;28;20118;-81
2022/02/13 06:55:11;;;;;;;19.55;12.07;;;2.20;79.80;;;;;;4961593;28;20026;-81
2022/02/13 06:57:48;;;;;;;19.63;11.85;;;2.20;79.90;;;;;;4965147;28;20364;-81
2022/02/13 07:00:15;;;;;;;17.50;10.98;;;2.20;79.90;;;;;;4966074;28;20034;-81
2022/02/13 07:02:41;;;;;;;19.77;11.68;;;2.20;80.00;;;;;;4970188;28;20426;-81
2022/02/13 07:05:07;;;;;;;19.85;11.43;;;2.30;79.70;;;;;;4965190;28;20580;-80
2022/02/13 07:07:33;;;;;;;18.20;11.95;;;2.40;79.70;;;;;;4966822;28;20039;-80
2022/02/13 07:09:59;;;;;;;15.85;10.45;;;2.50;79.40;;;;;;4968709;28;20038;-80
2022/02/13 07:12:24;;;;;;;20.45;10.77;;;2.40;79.50;;;;;;4967270;28;20142;-81
2022/02/13 07:14:50;;;;;;;15.10;11.13;;;2.30;79.70;;;;;;4964806;28;20077;-80
2022/02/13 07:17:15;;;;;;;18.70;10.88;;;2.30;79.80;;;;;;4968123;28;20062;-81
2022/02/13 07:19:41;;;;;;;17.48;11.98;;;2.40;79.80;;;;;;4951613;28;20031;-81
2022/02/13 07:22:07;;;;;;;17.20;11.30;;;2.40;79.60;;;;;;4965732;28;20117;-80
2022/02/13 07:24:37;;;;;;;17.65;11.82;;;2.40;79.60;;;;;;4965137;28;20374;-81
2022/02/13 07:27:04;;;;;;;16.50;11.77;;;2.40;79.60;;;;;;4967272;28;20140;-81
2022/02/13 07:29:30;;;;;;;17.58;10.70;;;2.40;79.40;;;;;;4968661;28;20027;-81
2022/02/13 07:31:56;;;;;;;16.98;10.63;;;2.40;79.20;;;;;;4962329;28;20038;-81
2022/02/13 07:34:21;;;;;;;14.75;10.40;;;2.50;79.00;;;;;;4960215;28;20449;-80
2022/02/13 07:36:52;;;;;;;15.02;10.60;;;2.50;78.90;;;;;;4964690;28;20129;-78
2022/02/13 07:39:19;;;;;;;16.67;11.90;;;2.60;79.00;;;;;;4957140;28;20050;-79
2022/02/13 07:41:45;;;;;;;14.25;10.50;;;2.60;78.60;;;;;;4957537;28;20035;-79
2022/02/13 07:44:11;;;;;;;15.18;10.68;;;2.60;78.50;;;;;;4956942;28;20386;-81
2022/02/13 07:46:37;;;;;;;17.83;10.45;;;2.70;78.50;;;;;;4962358;28;20036;-81
2022/02/13 07:49:05;;;;;;;17.00;10.77;;;2.70;78.40;;;;;;4959231;28;20484;-79
2022/02/13 07:51:32;;;;;;;16.90;10.98;;;2.70;78.50;;;;;;4959733;28;20070;-79
2022/02/13 07:53:58;;;;;;;16.35;11.52;;;2.70;78.40;;;;;;4957613;28;20042;-78
2022/02/13 07:56:24;;;;;;;17.38;10.82;;;2.80;78.30;;;;;;4954441;28;20105;-78
2022/02/13 07:58:50;;;;;;;15.70;10.45;;;2.80;78.10;;;;;;4960099;28;21282;-81
2022/02/13 08:01:19;;;;;;;16.13;10.82;;;2.80;78.10;;;;;;4958752;28;20117;-76
2022/02/13 08:03:45;;;;;;;15.45;9.95;;;2.90;78.10;;;;;;4962600;28;20043;-79
2022/02/13 08:06:15;;;;;;;19.38;10.57;;;2.90;78.00;;;;;;4960781;28;20604;-78
2022/02/13 08:08:41;;;;;;;17.38;10.77;;;3.00;77.90;;;;;;4962796;28;20437;-79
2022/02/13 08:11:07;;;;;;;16.42;10.77;;;3.00;77.70;;;;;;4956734;28;20035;-79
2022/02/13 08:13:34;;;;;;;15.48;10.85;;;3.10;77.60;;;;;;4961429;28;20085;-77
2022/02/13 08:16:00;;;;;;;15.15;10.23;;;3.10;77.60;;;;;;4959350;28;20115;-82
2022/02/13 08:18:26;;;;;;;14.50;10.50;;;3.10;77.50;;;;;;4959507;28;20031;-77
2022/02/13 08:20:55;;;;;;;16.23;10.10;;;3.20;77.40;;;;;;4959973;28;20043;-81
2022/02/13 08:23:22;;;;;;;16.20;10.85;;;3.20;77.50;;;;;;4956236;28;20050;-77
2022/02/13 08:25:48;;;;;;;16.65;10.65;;;3.40;77.10;;;;;;4959546;28;20061;-77
2022/02/13 08:28:14;;;;;;;14.05;9.70;;;3.50;76.90;;;;;;4956592;28;20185;-80
2022/02/13 08:30:41;;;;;;;17.00;10.45;;;3.50;76.90;;;;;;4961804;28;20038;-81
2022/02/13 08:33:07;;;;;;;15.25;10.15;;;3.50;77.10;;;;;;4960191;28;20054;-78
2022/02/13 08:35:33;;;;;;;14.88;10.50;;;3.60;77.30;;;;;;4961985;28;20043;-78
2022/02/13 08:38:00;;;;;;;15.32;9.65;;;3.70;76.90;;;;;;4961015;28;20050;-74
2022/02/13 08:40:27;;;;;;;15.30;9.98;;;3.80;76.90;;;;;;4959123;28;20042;-73
2022/02/13 08:42:53;;;;;;;14.20;9.93;;;3.90;76.50;;;;;;4956705;28;20034;-75
2022/02/13 08:45:18;;;;;;;14.45;9.60;;;4.00;76.10;;;;;;4957555;28;20075;-73
2022/02/13 08:47:44;;;;;;;18.00;11.20;;;4.10;75.90;;;;;;4962047;28;20418;-78
2022/02/13 08:50:10;;;;;;;15.88;9.93;;;4.10;75.60;;;;;;4962122;28;20431;-82
2022/02/13 08:52:36;;;;;;;15.05;9.95;;;4.20;75.50;;;;;;4960859;28;20130;-75
2022/02/13 08:55:02;;;;;;;18.60;10.55;;;4.30;75.50;;;;;;4943773;28;20046;-78
2022/02/13 08:57:28;;;;;;;12.75;9.65;;;4.40;75.10;;;;;;4962497;28;20030;-76
2022/02/13 08:59:54;;;;;;;14.60;9.63;;;4.50;74.80;;;;;;4959659;28;20097;-74
2022/02/13 09:02:19;;;;;;;15.95;10.63;;;4.60;74.50;;;;;;4958801;28;20057;-75
2022/02/13 09:04:45;;;;;;;14.98;10.00;;;4.70;73.70;;;;;;4961994;28;20577;-75
2022/02/13 09:07:11;;;;;;;16.65;9.73;;;4.90;73.40;;;;;;4965606;28;20371;-74
2022/02/13 09:09:36;;;;;;;15.00;9.82;;;4.90;73.10;;;;;;4962491;28;20126;-73
2022/02/13 09:12:02;;;;;;;16.98;10.00;;;5.00;72.70;;;;;;4945864;28;20382;-74
2022/02/13 09:14:28;;;;;;;13.95;9.77;;;4.90;72.50;;;;;;4964607;28;20070;-76
2022/02/13 09:16:54;;;;;;;16.55;9.50;;;4.90;72.50;;;;;;4967278;28;20363;-75
2022/02/13 09:19:20;;;;;;;14.60;9.80;;;4.90;72.60;;;;;;4963981;28;20039;-74
2022/02/13 09:21:52;;;;;;;12.90;9.88;;;4.80;72.70;;;;;;4963109;28;20039;-75
2022/02/13 09:24:19;;;;;;;14.02;9.95;;;4.80;73.10;;;;;;4965887;28;20047;-72
2022/02/13 09:26:45;;;;;;;14.35;10.43;;;4.90;72.60;;;;;;4960578;28;20322;-74
2022/02/13 09:29:11;;;;;;;13.73;9.50;;;4.90;72.40;;;;;;4959503;28;20038;-78
2022/02/13 09:31:36;;;;;;;15.43;9.65;;;5.00;72.80;;;;;;4956822;28;20422;-73
2022/02/13 09:34:02;;;;;;;17.35;10.13;;;5.10;72.40;;;;;;4947175;28;20078;-74
2022/02/13 09:36:28;;;;;;;16.83;9.82;;;5.20;72.00;;;;;;4959541;28;20049;-80
2022/02/13 09:38:54;;;;;;;15.27;9.50;;;5.20;71.80;;;;;;4961574;28;20050;-75
2022/02/13 09:41:21;;;;;;;14.60;9.63;;;5.20;72.10;;;;;;4960813;28;20709;-76
2022/02/13 09:43:48;;;;;;;14.55;10.20;;;5.30;71.50;;;;;;4964943;28;20077;-77
2022/02/13 09:46:15;;;;;;;14.02;10.18;;;5.20;71.30;;;;;;4962743;28;20178;-74
2022/02/13 09:48:41;;;;;;;15.23;9.27;;;5.30;71.30;;;;;;4964032;28;20134;-73
2022/02/13 09:51:07;;;;;;;15.18;8.93;;;5.30;71.00;;;;;;4965738;28;20126;-76
2022/02/13 09:53:35;;;;;;;14.75;9.65;;;5.30;70.80;;;;;;4964790;28;20407;-77
2022/02/13 09:56:03;;;;;;;14.25;10.00;;;5.40;70.80;;;;;;4959858;28;20104;-78
2022/02/13 09:58:30;;;;;;;16.55;10.43;;;5.40;70.90;;;;;;4960172;28;20046;-73
2022/02/13 10:01:07;;;;;;;17.58;11.75;;;5.50;70.40;;;;;;4966060;28;20046;-71
2022/02/13 10:03:38;;;;;;;16.90;11.20;;;5.50;70.00;;;;;;4962615;28;20292;-78
2022/02/13 10:06:14;;;;;;;14.50;10.70;;;5.60;70.20;;;;;;4964830;28;20557;-72
2022/02/13 10:08:51;;;;;;;13.63;9.35;;;5.90;69.40;;;;;;4962960;28;20498;-74
2022/02/13 10:11:29;;;;;;;14.10;9.88;;;6.10;69.10;;;;;;4963340;28;20038;-77
2022/02/13 10:14:06;;;;;;;13.88;10.23;;;6.10;68.20;;;;;;4962100;28;20134;-72
2022/02/13 10:16:33;;;;;;;14.00;9.32;;;6.30;68.80;;;;;;4962763;28;20090;-73
2022/02/13 10:19:01;;;;;;;16.02;10.20;;;6.30;68.00;;;;;;4959868;28;20489;-75
2022/02/13 10:21:40;;;;;;;14.10;9.85;;;6.30;68.10;;;;;;4964578;28;20038;-73
2022/02/13 10:24:19;;;;;;;13.68;10.10;;;6.50;67.90;;;;;;4962404;28;20131;-75
2022/02/13 10:27:04;;;;;;;15.13;11.93;;;6.70;67.20;;;;;;4970224;28;20695;-76
2022/02/13 10:29:33;;;;;;;;;;;6.90;67.00;;;;;;4964050;28;20132;-72
2022/02/13 10:32:31;;;;;;;14.20;9.77;;;7.10;66.20;;;;;;4966657;28;20431;-75
2022/02/13 10:35:15;;;;;;;15.27;9.10;;;7.10;65.90;;;;;;4947345;28;20042;-74
2022/02/13 10:37:58;;;;;;;16.25;8.85;;;7.00;65.80;;;;;;4965096;28;20075;-71
2022/02/13 10:40:25;;;;;;;12.82;8.68;;;7.10;66.00;;;;;;4963274;28;20038;-72
2022/02/13 10:43:07;;;;;;;12.48;8.52;;;7.30;66.10;;;;;;4965405;28;20050;-73
2022/02/13 10:45:36;;;;;;;13.43;8.82;;;7.40;65.90;;;;;;4970150;28;20030;-73
2022/02/13 10:48:07;;;;;;;14.95;9.10;;;7.60;66.10;;;;;;4965468;28;20058;-75
2022/02/13 10:50:37;;;;;;;13.25;8.70;;;7.70;65.70;;;;;;4964975;28;20039;-78
2022/02/13 10:53:06;;;;;;;13.15;8.52;;;7.90;65.10;;;;;;4964956;28;20513;-76
2022/02/13 10:55:34;;;;;;;12.95;8.82;;;7.80;65.20;;;;;;4967389;28;20364;-78
2022/02/13 10:58:01;;;;;;;13.65;8.77;;;7.80;65.10;;;;;;4946922;28;20668;-75
2022/02/13 11:00:30;;;;;;;11.05;8.23;;;8.00;65.10;;;;;;4954485;28;20043;-81
2022/02/13 11:03:04;;;;;;;11.13;7.63;;;8.10;65.00;;;;;;4952757;28;20045;-75
2022/02/13 11:05:32;;;;;;;12.65;8.02;;;8.10;65.10;;;;;;4947898;28;20078;-73
2022/02/13 11:08:06;;;;;;;11.52;7.65;;;8.20;65.40;;;;;;4939748;28;20046;-75
2022/02/13 11:10:44;;;;;;;12.77;8.23;;;8.30;64.10;;;;;;4947571;28;20051;-74
2022/02/13 11:13:11;;;;;;;17.58;9.77;;;8.40;64.60;;;;;;4945133;28;20055;-76
2022/02/13 11:15:39;;;;;;;13.63;9.32;;;8.50;64.20;;;;;;4944615;28;20589;-76
2022/02/13 11:18:07;;;;;;;12.90;8.60;;;8.30;64.50;;;;;;4939496;28;20056;-76
2022/02/13 11:20:34;;;;;;;11.55;8.10;;;8.40;65.10;;;;;;4942416;28;20111;-76
2022/02/13 11:23:23;;;;;;;11.63;9.10;;;8.30;64.90;;;;;;4946372;28;20101;-76
2022/02/13 11:25:51;;;;;;;14.82;9.60;;;8.40;65.30;;;;;;4951589;28;20289;-75
2022/02/13 11:28:23;;;;;;;11.15;8.60;;;8.30;65.10;;;;;;4948620;28;20041;-76
2022/02/13 11:30:58;;;;;;;13.02;8.65;;;8.30;65.40;;;;;;4948543;28;20027;-76
2022/02/13 11:33:23;;;;;;;13.63;9.88;;;8.00;65.80;;;;;;4943251;28;20162;-78
2022/02/13 11:36:10;;;;;;;11.98;8.25;;;8.10;66.10;;;;;;4924152;28;20122;-78
2022/02/13 11:38:48;;;;;;;14.05;9.43;;;8.20;65.60;;;;;;4937508;28;20038;-79
2022/02/13 11:41:16;;;;;;;12.98;7.93;;;8.20;64.20;;;;;;4958337;28;20050;-80
2022/02/13 11:43:45;;;;;;;12.07;7.80;;;8.10;64.20;;;;;;4965000;28;20121;-76
2022/02/13 11:46:11;;;;;;;11.77;8.63;;;8.00;64.40;;;;;;4966089;28;20054;-75
2022/02/13 11:48:43;;;;;;;12.38;8.60;;;8.10;64.30;;;;;;4964449;28;20142;-79
2022/02/13 11:51:13;;;;;;;12.68;8.95;;;8.00;64.50;;;;;;4950387;28;20034;-77
2022/02/13 11:53:44;;;;;;;13.45;8.93;;;7.90;65.00;;;;;;4964236;28;20061;-76
2022/02/13 11:56:27;;;;;;;13.57;9.27;;;8.10;65.10;;;;;;4964965;28;20030;-76
2022/02/13 11:58:57;;;;;;;15.10;9.38;;;8.10;65.00;;;;;;4965669;28;20042;-74
2022/02/13 12:01:35;;;;;;;14.25;9.38;;;8.10;65.30;;;;;;4965580;28;20039;-75
2022/02/13 12:04:05;;;;;;;14.10;9.23;;;8.10;65.60;;;;;;4955086;28;20039;-75
2022/02/13 12:06:32;;;;;;;15.10;9.05;;;8.20;65.50;;;;;;4959488;28;20121;-80
2022/02/13 12:08:59;;;;;;;13.15;8.80;;;8.30;65.50;;;;;;4961373;28;20406;-75
2022/02/13 12:11:36;;;;;;;13.40;8.35;;;8.20;65.90;;;;;;4965604;28;20473;-76
2022/02/13 12:14:13;;;;;;;15.77;9.63;;;8.20;65.70;;;;;;4957902;28;20149;-78
2022/02/13 12:17:07;;;;;;;13.27;9.20;;;8.30;66.10;;;;;;4965603;28;20085;-79
2022/02/13 12:19:37;;;;;;;14.63;8.15;;;8.30;66.40;;;;;;4965321;28;20124;-73
2022/02/13 12:22:08;;;;;;;14.52;9.15;;;8.40;66.50;;;;;;4969467;28;20054;-74
2022/02/13 12:24:33;;;;;;;13.20;8.00;;;8.40;66.80;;;;;;4967009;28;20324;-74
2022/02/13 12:27:03;;;;;;;16.83;9.57;;;8.30;67.60;;;;;;4974164;28;20038;-82
2022/02/13 12:29:29;;;;;;;15.18;9.73;;;8.40;67.80;;;;;;4965499;28;20067;-76
2022/02/13 12:32:12;;;;;;;14.38;9.27;;;8.40;67.90;;;;;;4963520;28;20624;-76
2022/02/13 12:34:51;;;;;;;16.92;10.52;;;8.50;68.10;;;;;;4968175;28;20053;-76
2022/02/13 12:37:17;;;;;;;15.95;9.50;;;8.50;68.50;;;;;;4968497;28;20045;-81
2022/02/13 12:39:50;;;;;;;13.90;9.48;;;8.60;68.50;;;;;;4967937;28;20034;-75
2022/02/13 12:42:30;;;;;;;14.57;9.95;;;8.60;68.70;;;;;;4979637;28;20744;-80